PN32 weather

Indiana Hospital Heliport
Indiana, Pennsylvania, United States

Public forecast

Using degrees Fahrenheit for public forecast. Weather courtesy of forecast.io.

METAR (pilot weather report)

Closest report is Indiana County/Jimmy Stewart Fld/ Airport, 2.0 nm (3.7 km) NE. Retrieved 2019/09/23 03:35 UTC (7 minutes ago):

KIDI 230335Z AUTO 00000KT 10SM CLR 19/17 A3005 RMK A01

TAF (pilot weather forecast)

Forecast is more than 6 hours old.

Closest forecast is John Murtha Johnstown Cambria County Airport, 22.3 nm (41.3 km) SE. Retrieved 2019/09/22 18:30 UTC (9 hours ago):

TAF KJST 221727Z 2218/2318 24007KT P6SM SCT040 SCT250 FM230000 20006KT P6SM SCT250 FM231000 23010G15KT P6SM SCT250 FM231400 24015G22KT P6SM VCSH OVC025